Time;durP1;ratioP1;P1;durP2;ratioP2;P2;SDS_P1;SDS_P2;PMS_P1;PMS_P2;Temp;Humidity;BMP_temperature;BMP_pressure;BME280_temperature;BME280_humidity;BME280_pressure;Samples;Min_cycle;Max_cycle;Signal;HPM_P1;HPM_P2
2021/03/28 00:00:52;;;;;;;5.07;2.05;;;18.40;52.10;;;;;;6187634;23;20001;-75
2021/03/28 00:03:30;;;;;;;8.75;2.38;;;18.40;52.00;;;;;;6214261;23;20061;-75
2021/03/28 00:06:29;;;;;;;6.93;2.17;;;18.30;52.00;;;;;;6213918;23;20080;-74
2021/03/28 00:09:17;;;;;;;5.57;1.98;;;18.40;52.10;;;;;;6213751;23;20024;-75
2021/03/28 00:11:54;;;;;;;6.40;2.13;;;18.30;52.00;;;;;;6213674;23;20013;-74
2021/03/28 00:14:46;;;;;;;7.43;2.17;;;18.30;52.10;;;;;;6213908;23;20020;-73
2021/03/28 00:17:20;;;;;;;5.85;2.33;;;18.20;52.10;;;;;;6208081;23;20005;-74
2021/03/28 00:20:16;;;;;;;8.73;2.23;;;18.20;52.10;;;;;;6213918;23;20051;-74
2021/03/28 00:22:58;;;;;;;5.30;1.75;;;18.20;52.10;;;;;;6214353;23;20004;-77
2021/03/28 00:25:52;;;;;;;4.28;1.55;;;18.20;52.10;;;;;;6214114;23;20051;-74
2021/03/28 00:28:29;;;;;;;6.63;1.77;;;18.10;52.10;;;;;;6214173;23;20496;-77
2021/03/28 00:31:12;;;;;;;4.32;1.55;;;18.10;52.10;;;;;;6213551;23;20008;-75
2021/03/28 00:33:39;;;;;;;7.13;2.28;;;18.10;52.10;;;;;;6214246;23;20000;-75
2021/03/28 00:36:08;;;;;;;6.28;2.22;;;18.10;52.10;;;;;;6187508;23;20108;-77
2021/03/28 00:38:37;;;;;;;5.15;1.90;;;18.00;52.10;;;;;;6213359;23;20463;-77
2021/03/28 00:41:18;;;;;;;7.10;1.98;;;18.00;52.20;;;;;;6213417;23;19996;-75
2021/03/28 00:44:19;;;;;;;5.93;1.92;;;17.90;52.10;;;;;;6214002;23;20083;-76
2021/03/28 00:46:54;;;;;;;5.32;2.17;;;17.90;52.10;;;;;;6208963;23;20021;-76
2021/03/28 00:49:49;;;;;;;5.43;1.70;;;17.90;52.10;;;;;;6213492;23;20012;-77
2021/03/28 00:52:14;;;;;;;4.05;1.83;;;17.90;52.10;;;;;;6207739;23;20012;-76
2021/03/28 00:54:51;;;;;;;3.90;1.92;;;17.80;52.10;;;;;;6214110;23;20334;-75
2021/03/28 00:57:29;;;;;;;4.13;1.55;;;17.80;52.10;;;;;;6186566;23;20512;-74
2021/03/28 00:59:58;;;;;;;5.32;2.30;;;17.80;52.10;;;;;;6186916;23;20004;-75
2021/03/28 01:02:32;;;;;;;6.28;2.08;;;17.80;52.20;;;;;;6186880;23;20011;-71
2021/03/28 01:05:00;;;;;;;5.47;2.22;;;17.80;52.10;;;;;;6213281;23;20373;-75
2021/03/28 01:07:32;;;;;;;6.15;1.77;;;17.70;52.20;;;;;;6213514;23;20004;-74
2021/03/28 01:10:25;;;;;;;5.47;1.63;;;17.70;52.20;;;;;;6213351;23;20001;-75
2021/03/28 01:13:10;;;;;;;5.10;1.98;;;17.70;52.20;;;;;;6213710;23;20396;-74
2021/03/28 01:15:42;;;;;;;5.40;2.05;;;17.70;52.20;;;;;;6186955;23;20007;-74
2021/03/28 01:18:26;;;;;;;4.68;1.95;;;17.60;52.40;;;;;;6213878;23;20001;-74
2021/03/28 01:21:03;;;;;;;6.93;1.80;;;17.60;52.40;;;;;;6213552;23;20460;-74
2021/03/28 01:23:41;;;;;;;4.30;1.58;;;17.60;52.50;;;;;;6213469;23;20055;-74
2021/03/28 01:26:09;;;;;;;4.80;1.88;;;17.50;52.40;;;;;;6213811;23;20370;-73
2021/03/28 01:28:43;;;;;;;6.47;1.83;;;17.50;52.50;;;;;;6213370;23;20445;-74
2021/03/28 01:31:18;;;;;;;4.60;1.77;;;17.50;52.50;;;;;;6186794;23;20012;-75
2021/03/28 01:33:50;;;;;;;6.17;1.50;;;17.40;52.70;;;;;;6213290;23;20425;-74
2021/03/28 01:36:37;;;;;;;6.30;2.08;;;17.40;52.80;;;;;;6213308;23;20000;-74
2021/03/28 01:39:24;;;;;;;5.72;2.30;;;17.40;52.70;;;;;;6213104;23;20449;-73
2021/03/28 01:42:00;;;;;;;5.32;1.80;;;17.30;52.60;;;;;;6213587;23;20008;-77
2021/03/28 01:44:49;;;;;;;3.25;1.35;;;17.30;52.80;;;;;;6213594;23;20157;-74
2021/03/28 01:47:32;;;;;;;4.70;1.60;;;17.20;52.90;;;;;;6213363;23;20434;-75
2021/03/28 01:50:19;;;;;;;5.13;1.92;;;17.10;52.90;;;;;;6213191;23;20004;-74
2021/03/28 01:53:00;;;;;;;6.45;1.70;;;17.10;52.90;;;;;;6213334;23;20334;-73
2021/03/28 01:55:43;;;;;;;4.13;1.48;;;17.10;53.00;;;;;;6213374;23;20036;-75
2021/03/28 01:58:14;;;;;;;4.93;1.83;;;17.10;53.10;;;;;;6213321;23;20008;-75
2021/03/28 02:01:04;;;;;;;6.05;1.77;;;17.00;53.00;;;;;;6213734;23;20001;-74
2021/03/28 02:03:45;;;;;;;3.80;1.70;;;17.00;53.20;;;;;;6213344;23;20005;-74
2021/03/28 02:06:34;;;;;;;4.38;1.40;;;17.00;53.30;;;;;;6213754;23;20005;-73
2021/03/28 02:09:01;;;;;;;4.00;1.38;;;16.90;53.30;;;;;;6129235;23;20008;-74
2021/03/28 02:11:39;;;;;;;4.68;1.52;;;17.00;53.20;;;;;;6213261;23;20017;-74
2021/03/28 02:14:26;;;;;;;4.18;1.35;;;16.90;53.20;;;;;;6213402;23;20035;-74
2021/03/28 02:17:17;;;;;;;6.28;1.55;;;16.90;53.30;;;;;;6213992;23;20027;-74
2021/03/28 02:20:09;;;;;;;5.15;1.30;;;16.90;53.30;;;;;;6215612;23;20000;-75
2021/03/28 02:22:51;;;;;;;4.68;1.23;;;16.90;53.40;;;;;;6215033;23;20000;-73
2021/03/28 02:25:27;;;;;;;3.53;1.42;;;16.80;53.40;;;;;;6214702;23;20027;-74
2021/03/28 02:28:06;;;;;;;7.47;1.48;;;16.80;53.40;;;;;;6214967;23;20314;-75
2021/03/28 02:30:46;;;;;;;4.30;1.52;;;16.80;53.40;;;;;;6215020;23;20054;-74
2021/03/28 02:33:20;;;;;;;5.60;1.70;;;16.80;53.50;;;;;;6215431;23;20005;-74
2021/03/28 02:35:53;;;;;;;3.30;0.95;;;16.80;53.50;;;;;;6214699;23;20469;-74
2021/03/28 02:38:43;;;;;;;4.53;1.52;;;16.70;53.50;;;;;;6214890;23;20009;-76
2021/03/28 02:41:34;;;;;;;4.05;1.27;;;16.70;53.50;;;;;;6214602;23;20009;-76
2021/03/28 02:44:44;;;;;;;4.53;1.35;;;16.70;53.60;;;;;;6214793;23;20007;-75
2021/03/28 02:47:31;;;;;;;3.40;1.38;;;16.70;53.60;;;;;;6123656;23;20076;-76
2021/03/28 02:50:21;;;;;;;3.97;1.38;;;16.60;53.60;;;;;;6214577;23;20361;-77
2021/03/28 02:53:04;;;;;;;3.13;1.20;;;16.60;53.60;;;;;;6215349;23;20441;-76
2021/03/28 02:56:00;;;;;;;5.18;1.65;;;16.60;53.70;;;;;;6214772;23;20429;-76
2021/03/28 02:58:49;;;;;;;3.72;1.63;;;16.60;53.70;;;;;;6214545;23;20131;-78
2021/03/28 03:01:42;;;;;;;4.45;1.30;;;16.50;53.70;;;;;;6214347;23;20035;-76
2021/03/28 03:04:20;;;;;;;6.45;1.73;;;16.60;53.70;;;;;;6214734;23;20449;-75
2021/03/28 03:07:06;;;;;;;4.13;1.38;;;16.50;53.70;;;;;;6214990;23;20052;-75
2021/03/28 03:09:39;;;;;;;3.80;1.17;;;16.50;53.80;;;;;;6187658;23;20008;-74
2021/03/28 03:12:30;;;;;;;4.40;1.30;;;16.50;53.90;;;;;;6214789;23;20460;-76
2021/03/28 03:15:16;;;;;;;4.35;1.40;;;16.50;53.90;;;;;;6214442;23;20001;-75
2021/03/28 03:18:03;;;;;;;5.15;1.17;;;16.50;53.90;;;;;;6214658;23;20004;-76
2021/03/28 03:20:38;;;;;;;5.88;1.83;;;16.40;53.90;;;;;;6214731;23;20042;-77
2021/03/28 03:23:24;;;;;;;3.42;1.13;;;16.50;54.00;;;;;;6187885;23;20008;-77
2021/03/28 03:26:17;;;;;;;5.28;1.70;;;16.40;53.90;;;;;;6214329;23;20001;-75
2021/03/28 03:29:10;;;;;;;6.18;1.70;;;16.40;54.00;;;;;;6214042;23;20051;-74
2021/03/28 03:31:53;;;;;;;3.80;1.58;;;16.40;54.10;;;;;;6214365;23;20008;-75
2021/03/28 03:34:25;;;;;;;5.13;1.45;;;16.30;54.00;;;;;;6214548;23;20007;-73
2021/03/28 03:37:26;;;;;;;5.05;1.23;;;16.40;54.10;;;;;;6214280;23;20039;-76
2021/03/28 03:40:30;;;;;;;3.45;1.30;;;16.40;54.20;;;;;;6214301;23;20064;-74
2021/03/28 03:43:35;;;;;;;4.13;1.30;;;16.40;54.20;;;;;;6187615;23;20032;-74
2021/03/28 03:46:01;;;;;;;5.35;1.35;;;16.40;54.20;;;;;;6214271;23;20032;-74
2021/03/28 03:48:33;;;;;;;6.75;1.95;;;16.30;54.20;;;;;;6214339;23;20003;-75
2021/03/28 03:51:04;;;;;;;4.82;1.48;;;16.30;54.20;;;;;;6214359;23;20012;-74
2021/03/28 03:53:46;;;;;;;6.35;1.52;;;16.30;54.20;;;;;;6214287;23;20005;-75
2021/03/28 03:56:21;;;;;;;3.90;1.65;;;16.30;54.30;;;;;;6213999;23;20008;-74
2021/03/28 03:59:16;;;;;;;4.32;1.77;;;16.30;54.30;;;;;;6214257;23;20011;-74
2021/03/28 04:02:02;;;;;;;4.57;1.52;;;16.30;54.30;;;;;;6214269;23;20007;-73
2021/03/28 04:04:52;;;;;;;3.83;1.20;;;16.20;54.30;;;;;;6214222;23;20005;-73
2021/03/28 04:07:36;;;;;;;5.05;1.60;;;16.30;54.40;;;;;;6214295;23;20005;-74
2021/03/28 04:10:23;;;;;;;4.68;1.73;;;16.30;54.50;;;;;;6187236;23;20013;-75
2021/03/28 04:13:27;;;;;;;3.72;1.35;;;16.20;54.50;;;;;;6214637;23;20000;-75
2021/03/28 04:16:02;;;;;;;5.88;1.65;;;16.20;54.50;;;;;;6142791;23;20011;-76
2021/03/28 04:18:27;;;;;;;7.20;1.85;;;16.20;54.50;;;;;;6214033;23;20024;-75
2021/03/28 04:21:17;;;;;;;4.47;1.23;;;16.20;54.60;;;;;;6187380;23;20322;-76
2021/03/28 04:24:16;;;;;;;3.90;1.38;;;16.20;54.60;;;;;;6213747;23;20053;-77
2021/03/28 04:27:18;;;;;;;5.05;1.52;;;16.20;54.60;;;;;;6187118;23;20077;-75
2021/03/28 04:29:48;;;;;;;5.07;1.48;;;16.20;54.70;;;;;;6213801;23;20392;-76
2021/03/28 04:32:23;;;;;;;3.63;1.50;;;16.10;54.60;;;;;;6213911;23;20018;-77
2021/03/28 04:34:48;;;;;;;4.07;1.20;;;16.10;54.70;;;;;;6214292;23;20004;-77
2021/03/28 04:37:38;;;;;;;5.70;1.80;;;16.10;54.70;;;;;;6213345;23;20410;-77
2021/03/28 04:40:39;;;;;;;3.78;1.30;;;16.10;54.70;;;;;;6213810;23;20008;-77
2021/03/28 04:43:20;;;;;;;6.05;1.50;;;16.10;54.70;;;;;;6093111;23;20006;-75
2021/03/28 04:46:06;;;;;;;4.28;1.90;;;16.10;54.80;;;;;;6199977;23;20004;-78
2021/03/28 04:48:50;;;;;;;4.90;1.55;;;16.10;54.80;;;;;;6186906;23;20000;-76
2021/03/28 04:51:34;;;;;;;4.75;1.52;;;16.10;54.80;;;;;;6186553;23;20326;-75
2021/03/28 04:54:37;;;;;;;4.50;1.60;;;16.10;54.80;;;;;;6213954;23;20005;-76
2021/03/28 04:57:22;;;;;;;4.97;1.60;;;16.10;54.90;;;;;;6213274;23;20001;-76
2021/03/28 05:00:31;;;;;;;3.85;1.52;;;16.10;54.80;;;;;;6186926;23;20011;-75
2021/03/28 05:03:18;;;;;;;5.28;1.58;;;16.00;54.90;;;;;;6182642;23;20008;-76
2021/03/28 05:06:14;;;;;;;4.25;1.60;;;16.00;54.90;;;;;;6187068;23;20736;-75
2021/03/28 05:09:06;;;;;;;6.68;1.67;;;16.00;54.90;;;;;;6213709;23;20071;-76
2021/03/28 05:12:01;;;;;;;5.45;1.45;;;16.00;55.00;;;;;;6213364;23;20079;-77
2021/03/28 05:15:07;;;;;;;6.65;1.63;;;16.00;55.00;;;;;;6213878;23;20012;-76
2021/03/28 05:18:10;;;;;;;4.03;1.55;;;16.00;55.00;;;;;;6213651;23;20079;-75
2021/03/28 05:21:11;;;;;;;4.93;1.70;;;16.00;55.00;;;;;;6213744;23;20008;-76
2021/03/28 05:24:01;;;;;;;3.53;1.33;;;16.00;55.00;;;;;;6167658;23;20008;-77
2021/03/28 05:26:50;;;;;;;6.32;1.45;;;16.00;55.10;;;;;;6213275;23;20009;-76
2021/03/28 05:29:49;;;;;;;4.32;1.23;;;15.90;55.10;;;;;;6213300;23;20012;-76
2021/03/28 05:32:29;;;;;;;5.30;1.88;;;15.90;55.10;;;;;;6213557;23;20008;-74
2021/03/28 05:35:01;;;;;;;3.67;1.52;;;15.90;55.10;;;;;;6213877;23;20005;-73
2021/03/28 05:37:59;;;;;;;6.45;1.55;;;15.90;55.10;;;;;;6186842;23;20013;-73
2021/03/28 05:40:44;;;;;;;3.20;1.40;;;15.90;55.70;;;;;;6213586;23;20471;-74
2021/03/28 05:43:10;;;;;;;4.63;1.77;;;15.90;55.10;;;;;;6186696;23;20004;-76
2021/03/28 05:46:06;;;;;;;5.57;2.00;;;15.90;55.20;;;;;;6186997;23;20100;-77
2021/03/28 05:48:53;;;;;;;4.57;1.45;;;15.90;55.20;;;;;;6213374;23;20080;-76
2021/03/28 05:52:07;;;;;;;5.57;1.45;;;15.90;55.20;;;;;;6186890;23;20357;-77
2021/03/28 05:55:10;;;;;;;6.28;1.50;;;15.90;55.20;;;;;;6189223;23;20005;-77
2021/03/28 05:57:48;;;;;;;4.70;1.50;;;15.90;55.20;;;;;;6215006;23;20083;-77
2021/03/28 06:00:33;;;;;;;5.45;1.52;;;15.90;55.30;;;;;;6215597;23;20003;-77
2021/03/28 06:03:16;;;;;;;3.95;1.80;;;15.90;55.30;;;;;;6188670;23;20004;-77
2021/03/28 06:06:03;;;;;;;4.78;1.60;;;15.90;55.40;;;;;;6215344;23;20003;-76
2021/03/28 06:09:30;;;;;;;5.40;1.65;;;15.80;55.30;;;;;;6215492;23;20005;-77
2021/03/28 06:12:33;;;;;;;4.45;1.45;;;15.90;55.40;;;;;;6195600;23;20009;-77
2021/03/28 06:15:08;;;;;;;3.90;1.42;;;15.80;55.40;;;;;;6215218;23;20001;-76
2021/03/28 06:17:48;;;;;;;5.82;1.83;;;15.80;55.40;;;;;;6188490;23;20012;-76
2021/03/28 06:20:31;;;;;;;4.97;1.83;;;15.80;55.40;;;;;;6215252;23;20005;-78
2021/03/28 06:23:34;;;;;;;5.03;1.65;;;15.80;55.40;;;;;;6215292;23;20055;-77
2021/03/28 06:26:21;;;;;;;7.03;1.52;;;15.80;55.40;;;;;;6215184;23;20028;-77
2021/03/28 06:29:01;;;;;;;5.20;1.55;;;15.80;55.40;;;;;;6214645;23;20081;-75
2021/03/28 06:31:52;;;;;;;3.47;1.25;;;15.80;55.40;;;;;;6215403;23;20092;-75
2021/03/28 06:34:54;;;;;;;6.18;1.95;;;15.80;55.50;;;;;;6214912;23;20000;-74
2021/03/28 06:37:29;;;;;;;4.70;1.67;;;15.80;55.40;;;;;;6214923;23;20024;-74
2021/03/28 06:40:42;;;;;;;4.63;1.75;;;15.80;55.40;;;;;;6215510;23;20000;-75
2021/03/28 06:43:38;;;;;;;6.15;1.50;;;15.80;55.40;;;;;;6187998;23;20058;-73
2021/03/28 06:46:28;;;;;;;5.55;1.60;;;15.70;55.40;;;;;;6215187;23;20450;-74
2021/03/28 06:49:15;;;;;;;4.60;1.58;;;15.80;55.50;;;;;;6214625;23;20456;-75
2021/03/28 06:51:47;;;;;;;5.57;1.77;;;15.70;55.50;;;;;;6214744;23;20071;-74
2021/03/28 06:54:40;;;;;;;5.03;1.70;;;15.70;55.50;;;;;;6187982;23;20345;-74
2021/03/28 06:57:55;;;;;;;4.25;1.75;;;15.70;55.60;;;;;;6214441;23;20001;-75
2021/03/28 07:00:35;;;;;;;5.70;1.67;;;15.70;55.50;;;;;;6189615;23;20343;-74
2021/03/28 07:03:22;;;;;;;5.00;1.73;;;15.70;55.50;;;;;;6214262;23;19997;-74
2021/03/28 07:06:18;;;;;;;4.07;1.30;;;15.70;55.50;;;;;;6214151;23;20001;-74
2021/03/28 07:09:02;;;;;;;5.93;1.65;;;15.70;55.60;;;;;;6214490;23;20051;-74
2021/03/28 07:11:39;;;;;;;5.70;1.40;;;15.70;55.70;;;;;;6215138;23;20100;-73
2021/03/28 07:14:19;;;;;;;7.50;2.30;;;15.60;55.60;;;;;;6187536;23;20063;-74
2021/03/28 07:17:24;;;;;;;4.95;1.55;;;15.60;55.60;;;;;;6214661;23;20039;-75
2021/03/28 07:19:52;;;;;;;5.03;1.50;;;15.60;55.60;;;;;;6213017;23;20032;-74
2021/03/28 07:22:26;;;;;;;4.60;1.75;;;15.60;55.60;;;;;;6213686;23;20024;-74
2021/03/28 07:25:26;;;;;;;4.82;1.60;;;15.70;55.40;;;;;;6214273;23;20004;-75
2021/03/28 07:28:20;;;;;;;4.10;1.65;;;15.90;55.30;;;;;;6214527;23;20027;-74
2021/03/28 07:31:09;;;;;;;6.03;1.65;;;16.00;55.10;;;;;;6214260;23;20384;-74
2021/03/28 07:34:12;;;;;;;5.35;1.40;;;16.20;55.10;;;;;;6214461;23;20000;-72
2021/03/28 07:37:15;;;;;;;6.10;1.48;;;16.30;55.00;;;;;;6214387;23;20020;-73
2021/03/28 07:40:27;;;;;;;5.32;1.48;;;16.50;55.00;;;;;;6187488;23;20083;-73
2021/03/28 07:43:31;;;;;;;3.58;1.48;;;16.60;54.90;;;;;;6214487;23;20009;-72
2021/03/28 07:46:38;;;;;;;5.40;1.38;;;16.70;54.80;;;;;;6213225;23;20067;-73
2021/03/28 07:49:25;;;;;;;5.40;1.38;;;16.80;54.80;;;;;;6187056;23;20349;-74
2021/03/28 07:52:12;;;;;;;4.72;1.38;;;16.90;54.60;;;;;;6213666;23;20062;-73
2021/03/28 07:55:03;;;;;;;6.38;1.38;;;17.10;54.50;;;;;;6187243;23;20011;-73
2021/03/28 07:57:56;;;;;;;5.82;1.60;;;17.20;54.50;;;;;;6187726;23;20467;-73
2021/03/28 08:00:52;;;;;;;6.40;1.40;;;17.30;54.40;;;;;;6214241;23;20079;-73
2021/03/28 08:03:36;;;;;;;8.88;2.13;;;17.50;54.20;;;;;;6187736;23;20032;-73
2021/03/28 08:06:08;;;;;;;7.47;1.88;;;17.60;54.10;;;;;;6214614;23;19996;-74
2021/03/28 08:09:08;;;;;;;5.65;1.50;;;17.70;54.00;;;;;;6214469;23;20337;-73
2021/03/28 08:11:54;;;;;;;6.97;1.63;;;17.90;53.80;;;;;;6214433;23;20092;-74
2021/03/28 08:14:51;;;;;;;5.07;1.48;;;18.00;54.00;;;;;;6214021;23;19997;-79
2021/03/28 08:17:16;;;;;;;;;;;18.00;53.60;;;;;;6214821;23;20000;-78
2021/03/28 08:19:48;;;;;;;4.72;1.77;;;18.10;53.50;;;;;;6187645;23;19922;-78
2021/03/28 08:22:49;;;;;;;6.60;2.38;;;18.20;53.70;;;;;;6187214;23;20004;-78
2021/03/28 08:25:40;;;;;;;9.40;2.05;;;18.30;53.40;;;;;;6214192;23;20459;-80
2021/03/28 08:28:38;;;;;;;12.32;2.00;;;18.30;52.30;;;;;;6214384;23;20004;-83
2021/03/28 08:31:15;;;;;;;8.70;2.15;;;18.20;52.30;;;;;;6214102;23;20008;-76
2021/03/28 08:34:18;;;;;;;9.25;2.10;;;18.30;51.90;;;;;;6213987;23;20001;-78
2021/03/28 08:37:15;;;;;;;8.32;2.30;;;18.30;51.50;;;;;;6212920;23;20319;-76
2021/03/28 08:40:08;;;;;;;11.23;2.75;;;18.40;51.70;;;;;;6213763;23;20011;-80
2021/03/28 08:43:22;;;;;;;7.43;2.03;;;18.50;51.50;;;;;;6213625;23;20394;-81
2021/03/28 08:46:22;;;;;;;7.38;1.95;;;18.60;52.10;;;;;;6213461;23;20311;-74
2021/03/28 08:49:28;;;;;;;6.50;1.75;;;18.70;51.60;;;;;;6187348;23;20031;-77
2021/03/28 08:52:37;;;;;;;7.75;1.98;;;18.80;51.60;;;;;;6203923;23;20071;-80
2021/03/28 08:55:41;;;;;;;9.10;2.03;;;18.80;51.70;;;;;;6158571;23;20004;-74
2021/03/28 08:58:31;;;;;;;11.20;1.95;;;18.90;51.40;;;;;;6210752;23;20512;-73
2021/03/28 09:01:12;;;;;;;10.50;2.75;;;19.00;51.10;;;;;;6212442;23;20011;-74
2021/03/28 09:04:11;;;;;;;6.63;1.77;;;19.10;51.10;;;;;;6213085;23;20007;-77
2021/03/28 09:07:23;;;;;;;6.22;1.80;;;19.10;51.20;;;;;;6213136;23;20004;-81
2021/03/28 09:10:28;;;;;;;6.78;1.67;;;19.20;51.10;;;;;;6211842;23;20000;-74
2021/03/28 09:13:15;;;;;;;9.50;2.25;;;19.20;51.40;;;;;;6212772;23;20028;-80
2021/03/28 09:15:40;;;;;;;6.60;2.03;;;19.30;52.00;;;;;;6212788;23;20001;-75
2021/03/28 09:18:24;;;;;;;5.10;1.92;;;19.40;52.60;;;;;;6212956;23;20016;-79
2021/03/28 09:21:02;;;;;;;8.50;1.88;;;19.50;52.70;;;;;;6212825;23;20001;-75
2021/03/28 09:23:43;;;;;;;4.85;1.27;;;19.60;53.00;;;;;;6212321;23;20008;-75
2021/03/28 09:26:18;;;;;;;9.07;2.15;;;19.70;52.90;;;;;;6212709;23;20063;-76
2021/03/28 09:28:55;;;;;;;6.38;2.25;;;19.80;53.10;;;;;;6215012;23;20001;-74
2021/03/28 09:31:27;;;;;;;8.35;1.98;;;19.80;53.10;;;;;;6214693;23;20019;-78
2021/03/28 09:34:31;;;;;;;7.10;1.35;;;19.90;53.10;;;;;;6214714;23;19996;-77
2021/03/28 09:37:04;;;;;;;6.55;1.67;;;19.90;53.30;;;;;;6214428;23;20008;-73
2021/03/28 09:39:47;;;;;;;7.45;1.80;;;20.00;53.00;;;;;;6214255;23;20032;-73
2021/03/28 09:42:50;;;;;;;4.78;1.58;;;20.00;53.00;;;;;;6214622;23;20028;-75
2021/03/28 09:45:39;;;;;;;5.03;1.40;;;20.00;52.90;;;;;;6188225;23;20005;-76
2021/03/28 09:48:33;;;;;;;6.63;1.90;;;20.10;52.30;;;;;;6214743;23;20004;-76
2021/03/28 09:51:37;;;;;;;5.13;1.40;;;20.00;51.60;;;;;;6214185;23;20018;-77
2021/03/28 09:54:08;;;;;;;9.63;1.83;;;20.00;51.60;;;;;;6213492;23;20000;-76
2021/03/28 09:57:04;;;;;;;5.70;1.27;;;20.00;51.40;;;;;;6188034;23;20087;-75
2021/03/28 10:00:11;;;;;;;8.55;2.45;;;20.00;51.40;;;;;;6214426;23;20009;-74
2021/03/28 10:02:37;;;;;;;8.70;1.80;;;20.00;51.60;;;;;;6168768;23;20009;-73
2021/03/28 10:05:23;;;;;;;6.97;1.50;;;20.10;51.40;;;;;;6214227;23;20004;-75
2021/03/28 10:08:08;;;;;;;10.77;2.28;;;20.10;51.30;;;;;;6214110;23;20108;-76
2021/03/28 10:10:52;;;;;;;5.75;1.45;;;20.20;51.50;;;;;;6214560;23;20070;-74
2021/03/28 10:13:41;;;;;;;7.40;1.35;;;20.20;51.30;;;;;;6214473;23;20024;-73
2021/03/28 10:16:33;;;;;;;10.15;1.85;;;20.20;51.50;;;;;;6214374;23;20084;-76
2021/03/28 10:19:12;;;;;;;7.50;1.80;;;20.30;51.90;;;;;;6157596;23;20005;-74
2021/03/28 10:22:15;;;;;;;15.20;3.20;;;20.30;52.00;;;;;;6214392;23;20007;-74
2021/03/28 10:25:06;;;;;;;14.40;2.60;;;20.20;52.40;;;;;;6214261;23;20004;-82
2021/03/28 10:27:45;;;;;;;14.50;2.58;;;20.30;52.50;;;;;;6214506;23;20084;-74
2021/03/28 10:30:25;;;;;;;17.52;2.55;;;20.40;52.30;;;;;;6214394;23;20000;-78
2021/03/28 10:33:03;;;;;;;10.48;1.83;;;20.40;52.00;;;;;;6214288;23;20005;-78
2021/03/28 10:35:52;;;;;;;11.60;2.40;;;20.40;51.90;;;;;;6214023;23;20000;-76
2021/03/28 10:38:52;;;;;;;9.15;2.22;;;20.40;51.70;;;;;;6214054;23;20016;-80
2021/03/28 10:41:17;;;;;;;11.07;2.10;;;20.40;51.60;;;;;;6214171;23;20007;-82
2021/03/28 10:43:58;;;;;;;7.53;1.60;;;20.40;51.60;;;;;;6187392;23;20440;-76
2021/03/28 10:46:32;;;;;;;8.98;2.55;;;20.50;51.00;;;;;;6214385;23;20001;-80
2021/03/28 10:49:35;;;;;;;11.52;2.33;;;20.50;51.10;;;;;;6213687;23;20452;-78
2021/03/28 10:52:40;;;;;;;8.50;1.77;;;20.50;51.00;;;;;;6213627;23;20019;-79
2021/03/28 10:55:27;;;;;;;7.13;1.30;;;20.50;50.90;;;;;;6214054;23;20012;-80
2021/03/28 10:58:12;;;;;;;4.55;1.38;;;20.50;51.00;;;;;;6213856;23;20005;-75
2021/03/28 11:01:01;;;;;;;10.10;1.85;;;20.60;50.50;;;;;;6214449;23;20000;-81
2021/03/28 11:03:49;;;;;;;8.63;1.70;;;20.60;50.50;;;;;;6213850;23;20012;-77
2021/03/28 11:06:23;;;;;;;10.10;1.70;;;20.70;51.20;;;;;;6213572;23;20008;-80
2021/03/28 11:09:11;;;;;;;8.80;1.77;;;20.70;51.20;;;;;;6213480;23;20004;-78
2021/03/28 11:11:46;;;;;;;5.72;1.60;;;20.80;50.50;;;;;;6186899;23;20020;-81
2021/03/28 11:14:43;;;;;;;6.65;1.88;;;20.80;50.30;;;;;;6213819;23;19997;-78
2021/03/28 11:17:14;;;;;;;8.52;1.90;;;20.90;50.20;;;;;;6214066;23;20040;-79
2021/03/28 11:20:00;;;;;;;5.68;1.50;;;20.90;50.80;;;;;;6214344;23;19997;-79
2021/03/28 11:22:35;;;;;;;5.88;1.50;;;21.00;50.10;;;;;;6214008;23;20008;-80
2021/03/28 11:25:16;;;;;;;6.93;2.00;;;21.00;50.10;;;;;;6213890;23;19996;-75
2021/03/28 11:27:54;;;;;;;6.10;1.48;;;21.10;50.40;;;;;;6214107;23;20106;-75
2021/03/28 11:30:45;;;;;;;7.22;2.13;;;21.10;50.70;;;;;;6213398;23;20008;-79
2021/03/28 11:33:36;;;;;;;6.32;1.80;;;21.20;50.80;;;;;;6213868;23;20035;-80
2021/03/28 11:36:23;;;;;;;7.78;1.80;;;21.20;50.70;;;;;;6213637;23;20013;-74
2021/03/28 11:39:21;;;;;;;4.70;1.63;;;21.30;50.50;;;;;;6186852;23;20008;-77
2021/03/28 11:42:25;;;;;;;6.63;1.55;;;21.40;50.50;;;;;;6213206;23;20009;-76
2021/03/28 11:45:00;;;;;;;5.78;2.88;;;21.40;51.00;;;;;;6151831;23;20053;-77
2021/03/28 11:47:32;;;;;;;6.82;2.13;;;21.50;50.40;;;;;;6213393;23;20043;-78
2021/03/28 11:50:00;;;;;;;6.28;1.80;;;21.60;50.40;;;;;;6212410;23;20005;-77
2021/03/28 11:52:31;;;;;;;6.93;1.60;;;21.70;50.30;;;;;;6213412;23;20322;-79
2021/03/28 11:55:06;;;;;;;5.55;1.58;;;21.70;50.80;;;;;;6213316;23;20001;-80
2021/03/28 11:57:34;;;;;;;5.70;1.58;;;21.70;50.20;;;;;;6213428;23;20015;-80
2021/03/28 12:00:37;;;;;;;5.97;1.60;;;21.70;50.10;;;;;;6213053;23;20376;-81
2021/03/28 12:03:21;;;;;;;6.05;1.67;;;21.80;50.10;;;;;;6213190;23;20001;-84
2021/03/28 12:05:59;;;;;;;7.80;1.83;;;21.90;49.90;;;;;;6213131;23;20504;-78
2021/03/28 12:08:32;;;;;;;4.93;1.17;;;22.00;50.20;;;;;;6213024;23;20322;-83
2021/03/28 12:11:19;;;;;;;5.15;1.20;;;22.20;49.90;;;;;;6212563;23;20012;-76
2021/03/28 12:13:48;;;;;;;7.00;1.90;;;22.30;49.60;;;;;;6186606;23;20005;-79
2021/03/28 12:16:14;;;;;;;7.25;1.33;;;22.30;49.60;;;;;;6213697;23;20075;-81
2021/03/28 12:18:49;;;;;;;4.63;1.63;;;22.30;49.50;;;;;;6213409;23;20079;-77
2021/03/28 12:21:26;;;;;;;9.00;1.58;;;22.30;49.60;;;;;;6213068;23;20008;-76
2021/03/28 12:23:51;;;;;;;11.88;1.60;;;22.40;49.40;;;;;;6212811;23;19997;-77
2021/03/28 12:26:20;;;;;;;7.30;1.23;;;22.40;49.30;;;;;;6212998;23;20011;-77
2021/03/28 12:28:49;;;;;;;8.27;1.25;;;22.50;49.10;;;;;;6212768;23;20000;-78
2021/03/28 12:31:36;;;;;;;5.70;1.35;;;22.50;49.00;;;;;;6213308;23;20449;-77
2021/03/28 12:34:08;;;;;;;6.47;1.60;;;22.60;49.10;;;;;;6212067;23;20001;-78
2021/03/28 12:37:02;;;;;;;6.35;1.23;;;22.70;48.90;;;;;;6186491;23;20027;-80
2021/03/28 12:39:29;;;;;;;4.70;1.38;;;22.70;48.50;;;;;;6212895;23;20076;-77
2021/03/28 12:42:04;;;;;;;6.00;1.20;;;22.80;48.60;;;;;;6212703;23;20071;-76
2021/03/28 12:44:43;;;;;;;6.27;1.10;;;22.90;48.60;;;;;;6213089;23;20076;-81
2021/03/28 12:47:21;;;;;;;7.05;1.48;;;22.90;48.50;;;;;;6212836;23;20001;-75
2021/03/28 12:50:23;;;;;;;5.13;1.02;;;23.00;48.50;;;;;;6212980;23;20199;-79
2021/03/28 12:53:02;;;;;;;3.33;1.00;;;23.10;48.50;;;;;;6212669;23;20004;-80
2021/03/28 12:55:36;;;;;;;9.13;1.73;;;23.20;48.30;;;;;;6185786;23;20005;-79
2021/03/28 12:58:07;;;;;;;5.15;1.25;;;23.20;47.90;;;;;;6212636;23;20011;-80
2021/03/28 13:00:36;;;;;;;3.72;1.10;;;23.30;47.80;;;;;;6212401;23;19996;-78
2021/03/28 13:03:20;;;;;;;5.95;1.38;;;23.40;47.80;;;;;;6212615;23;20009;-79
2021/03/28 13:06:11;;;;;;;3.88;1.00;;;23.40;47.60;;;;;;6212569;23;20005;-81
2021/03/28 13:08:42;;;;;;;7.90;1.52;;;23.50;47.30;;;;;;6185955;23;20385;-76
2021/03/28 13:11:09;;;;;;;3.38;1.08;;;23.50;47.40;;;;;;6185667;23;20457;-75
2021/03/28 13:13:44;;;;;;;4.65;1.30;;;23.60;47.30;;;;;;6212602;23;20000;-77
2021/03/28 13:16:29;;;;;;;3.78;1.00;;;23.60;47.10;;;;;;6212871;23;20011;-79
2021/03/28 13:18:58;;;;;;;4.35;1.20;;;23.60;47.10;;;;;;6212775;23;20016;-79
2021/03/28 13:21:35;;;;;;;2.58;0.80;;;23.60;47.00;;;;;;6212926;23;20005;-81
2021/03/28 13:24:05;;;;;;;5.63;1.58;;;23.60;47.00;;;;;;6212204;23;20080;-76
2021/03/28 13:26:36;;;;;;;5.25;1.15;;;23.60;47.00;;;;;;6185988;23;20023;-76
2021/03/28 13:29:22;;;;;;;5.85;1.45;;;23.60;46.90;;;;;;6212381;23;20507;-80
2021/03/28 13:31:56;;;;;;;4.78;1.45;;;23.60;46.90;;;;;;6185813;23;20449;-82
2021/03/28 13:34:43;;;;;;;6.25;1.40;;;23.60;47.10;;;;;;6212687;23;19997;-80
2021/03/28 13:37:23;;;;;;;2.75;1.05;;;23.60;47.40;;;;;;6185661;23;20566;-74
2021/03/28 13:39:58;;;;;;;5.15;1.23;;;23.60;46.90;;;;;;6212240;23;20341;-77
2021/03/28 13:42:40;;;;;;;4.07;1.20;;;23.60;47.10;;;;;;6212444;23;20004;-78
2021/03/28 13:45:17;;;;;;;5.40;1.10;;;23.60;47.30;;;;;;6212472;23;20009;-77
2021/03/28 13:47:42;;;;;;;5.28;1.38;;;23.60;47.20;;;;;;6213402;23;20066;-74
2021/03/28 13:50:29;;;;;;;4.00;0.93;;;23.50;47.30;;;;;;6212344;23;20076;-76
2021/03/28 13:52:56;;;;;;;4.07;0.98;;;23.50;47.10;;;;;;6212182;23;20005;-80
2021/03/28 13:55:48;;;;;;;4.63;1.15;;;23.50;47.00;;;;;;6185543;23;20015;-78
2021/03/28 13:58:30;;;;;;;3.53;1.17;;;23.50;46.90;;;;;;6212622;23;20091;-74
2021/03/28 14:01:22;;;;;;;3.78;1.10;;;23.50;46.90;;;;;;6212363;23;20038;-78
2021/03/28 14:03:49;;;;;;;3.50;1.05;;;23.40;46.50;;;;;;6212219;23;20005;-75
2021/03/28 14:06:31;;;;;;;3.72;0.93;;;23.40;46.60;;;;;;6212791;23;20009;-74
2021/03/28 14:09:03;;;;;;;5.32;1.15;;;23.40;46.60;;;;;;6185441;23;20004;-76
2021/03/28 14:11:46;;;;;;;3.42;1.08;;;23.40;46.70;;;;;;6212345;23;20429;-82
2021/03/28 14:14:31;;;;;;;3.70;0.82;;;23.30;46.60;;;;;;6214281;23;20007;-79
2021/03/28 14:17:05;;;;;;;3.55;1.10;;;23.30;46.80;;;;;;6212933;23;20004;-78